Time;durP1;ratioP1;P1;durP2;ratioP2;P2;SDS_P1;SDS_P2;PMS_P1;PMS_P2;Temp;Humidity;BMP_temperature;BMP_pressure;BME280_temperature;BME280_humidity;BME280_pressure;Samples;Min_cycle;Max_cycle;Signal;HPM_P1;HPM_P2
2022/08/12 00:44:26;;;;;;;0.20;0.20;;;;;;;16.98;85.38;101346.94;5046557;28;20164;-61
2022/08/12 00:47:00;;;;;;;0.30;0.30;;;;;;;17.04;85.45;101348.59;5046572;28;20133;-62
2022/08/12 00:49:27;;;;;;;0.50;0.50;;;;;;;17.09;84.80;101354.63;5046592;28;20033;-60
2022/08/12 00:52:10;;;;;;;0.20;0.20;;;;;;;17.14;84.90;101353.69;5046627;28;20029;-61
2022/08/12 00:54:46;;;;;;;0.20;0.20;;;;;;;17.19;84.61;101351.78;5046492;28;20025;-61
2022/08/12 00:57:15;;;;;;;0.20;0.20;;;;;;;17.20;84.78;101354.38;5046322;28;20037;-61
2022/08/12 01:00:11;;;;;;;0.20;0.20;;;;;;;17.23;85.20;101348.22;5046327;28;20075;-61
2022/08/12 01:02:39;;;;;;;0.30;0.30;;;;;;;17.26;84.98;101347.28;5028388;28;20025;-62
2022/08/12 01:13:23;;;;;;;0.38;0.38;;;;;;;17.41;87.43;101346.09;5046195;28;20031;-62
2022/08/12 01:15:51;;;;;;;0.30;0.30;;;;;;;17.46;88.07;101349.47;5045906;28;20104;-62
2022/08/12 01:18:22;;;;;;;0.20;0.20;;;;;;;17.53;87.47;101352.81;5045976;28;20030;-62
2022/08/12 01:21:16;;;;;;;0.50;0.50;;;;;;;17.55;88.26;101349.28;5046055;28;20149;-62
2022/08/12 01:23:49;;;;;;;0.20;0.20;;;;;;;17.54;88.20;101341.44;5005530;28;20044;-61
2022/08/12 01:26:18;;;;;;;2.30;1.02;;;;;;;17.55;88.44;101337.91;5046024;28;20551;-61
2022/08/12 01:28:47;;;;;;;0.70;0.70;;;;;;;17.56;88.78;101348.38;5045774;28;20029;-61
2022/08/12 01:31:15;;;;;;;0.45;0.45;;;;;;;17.52;88.83;101346.72;5045664;28;20025;-64
2022/08/12 01:33:52;;;;;;;0.20;0.20;;;;;;;17.56;89.54;101350.13;5045591;28;20049;-62
2022/08/12 01:36:21;;;;;;;0.43;0.43;;;;;;;17.57;88.51;101344.84;5028020;28;20025;-61
2022/08/12 01:38:49;;;;;;;0.20;0.20;;;;;;;17.57;89.38;101355.34;5045786;28;20017;-62
2022/08/12 01:41:17;;;;;;;0.30;0.30;;;;;;;17.57;89.64;101349.25;5045515;28;20025;-61
2022/08/12 01:43:44;;;;;;;0.82;0.82;;;;;;;17.64;89.50;101347.31;5045501;28;20048;-61
2022/08/12 01:46:15;;;;;;;0.20;0.20;;;;;;;17.67;89.90;101352.50;5045421;28;20089;-61
2022/08/12 01:48:52;;;;;;;0.30;0.30;;;;;;;17.66;90.13;101354.28;5045583;28;20029;-62
2022/08/12 01:51:30;;;;;;;0.30;0.30;;;;;;;17.65;89.59;101352.53;5045523;28;20028;-61
2022/08/12 01:54:03;;;;;;;0.20;0.20;;;;;;;17.65;89.77;101344.66;5045089;28;20041;-62
2022/08/12 01:56:38;;;;;;;0.43;0.43;;;;;;;17.65;89.74;101346.44;5045482;28;20022;-63
2022/08/12 02:01:52;;;;;;;0.45;0.45;;;;;;;17.56;89.86;101345.75;5045000;28;20086;-62
2022/08/12 02:13:20;;;;;;;0.20;0.20;;;;;;;17.45;89.46;101360.88;5045101;28;20036;-61
2022/08/12 02:15:55;;;;;;;0.20;0.20;;;;;;;17.44;89.67;101351.28;5045229;28;20469;-60
2022/08/12 02:18:38;;;;;;;0.30;0.30;;;;;;;17.41;90.29;101353.97;5045080;28;20033;-60
2022/08/12 02:21:10;;;;;;;0.25;0.25;;;;;;;17.41;89.45;101357.44;5044113;28;20025;-61
2022/08/12 02:23:37;;;;;;;0.30;0.30;;;;;;;17.39;89.70;101356.63;5044427;28;20029;-60
2022/08/12 02:26:07;;;;;;;1.65;1.55;;;;;;;17.40;89.81;101353.09;5043786;28;20033;-60
2022/08/12 02:28:35;;;;;;;0.20;0.20;;;;;;;17.44;88.99;101354.75;5043790;28;20018;-61
2022/08/12 02:31:03;;;;;;;0.65;0.65;;;;;;;17.45;88.91;101350.38;5149851;22;20053;-60
2022/08/12 02:33:31;;;;;;;0.32;0.32;;;;;;;17.42;88.96;101343.44;5041879;28;20044;-62
2022/08/12 02:35:58;;;;;;;0.43;0.43;;;;;;;17.44;88.59;101353.91;5042775;28;20437;-62
2022/08/12 02:38:26;;;;;;;0.50;0.50;;;;;;;17.43;88.66;101346.91;5043623;28;20031;-62
2022/08/12 02:40:53;;;;;;;0.20;0.20;;;;;;;17.42;88.23;101347.81;5043271;28;20025;-62
2022/08/12 02:43:37;;;;;;;0.20;0.20;;;;;;;17.43;87.96;101346.91;5043417;28;20022;-62
2022/08/12 02:46:08;;;;;;;0.40;0.40;;;;;;;17.43;87.37;101352.16;5043611;28;20545;-62
2022/08/12 02:48:33;;;;;;;0.20;0.20;;;;;;;17.40;87.78;101339.09;5043694;28;20049;-62
2022/08/12 02:51:09;;;;;;;0.30;0.30;;;;;;;17.39;87.30;101345.25;5043524;28;20112;-62
2022/08/12 02:53:36;;;;;;;0.30;0.30;;;;;;;17.39;86.77;101342.63;5043449;28;20025;-62
2022/08/12 02:56:03;;;;;;;0.50;0.50;;;;;;;17.32;86.62;101334.03;5043264;28;20028;-62
2022/08/12 02:58:31;;;;;;;1.55;1.52;;;;;;;17.33;86.63;101346.28;5043425;28;20099;-61
2022/08/12 03:03:33;;;;;;;0.93;0.93;;;;;;;17.06;86.76;101317.91;5097367;23;20363;-65
2022/08/12 03:06:01;;;;;;;1.55;1.30;;;;;;;17.17;86.85;101341.34;5043875;28;20022;-65
2022/08/12 03:08:34;;;;;;;0.20;0.20;;;;;;;17.15;86.51;101347.53;5047050;28;20026;-65
2022/08/12 03:11:08;;;;;;;0.20;0.20;;;;;;;17.13;86.57;101344.06;5046867;28;20025;-65
2022/08/12 03:13:37;;;;;;;0.57;0.57;;;;;;;17.05;86.76;101338.94;5047030;28;20040;-65
2022/08/12 03:16:03;;;;;;;0.20;0.20;;;;;;;17.03;86.65;101338.97;5047024;28;20029;-65
2022/08/12 03:18:31;;;;;;;0.30;0.30;;;;;;;16.96;86.85;101326.91;5046846;28;20022;-65
2022/08/12 03:20:59;;;;;;;0.20;0.20;;;;;;;17.02;87.27;101336.38;5047128;28;20104;-65
2022/08/12 03:23:26;;;;;;;1.15;1.05;;;;;;;17.01;86.98;101337.28;5047071;28;20083;-65
2022/08/12 03:25:56;;;;;;;0.20;0.20;;;;;;;17.06;86.62;101338.06;5046755;28;20025;-65
2022/08/12 03:31:08;;;;;;;0.45;0.45;;;;;;;17.08;86.40;101342.41;5045968;28;20035;-65
2022/08/12 03:33:36;;;;;;;0.30;0.30;;;;;;;17.10;86.53;101347.63;5046786;28;20048;-65
2022/08/12 03:36:05;;;;;;;0.30;0.30;;;;;;;17.12;86.30;101355.47;5046628;28;20052;-65
2022/08/12 03:38:35;;;;;;;0.50;0.50;;;;;;;17.13;86.55;101351.94;5046714;28;20029;-65
2022/08/12 04:00:55;;;;;;;0.65;0.65;;;;;;;17.67;86.88;101366.50;5046093;28;20048;-66
2022/08/12 04:06:08;;;;;;;0.30;0.30;;;;;;;18.13;87.35;101366.31;5046131;28;20507;-65
2022/08/12 04:08:34;;;;;;;0.20;0.20;;;;;;;18.47;88.03;101374.28;5046006;28;20096;-65
2022/08/12 04:13:47;;;;;;;0.82;0.40;;;;;;;19.17;90.08;101359.25;5046108;28;20052;-66
2022/08/12 04:16:14;;;;;;;0.20;0.20;;;;;;;19.54;89.63;101355.47;5045791;28;20104;-66
2022/08/12 04:18:41;;;;;;;0.20;0.20;;;;;;;19.79;88.69;101362.59;5045842;28;20053;-66
2022/08/12 04:21:09;;;;;;;0.20;0.20;;;;;;;20.04;88.38;101364.47;5045843;28;20022;-67
2022/08/12 04:23:37;;;;;;;0.20;0.20;;;;;;;20.38;88.81;101366.88;5045756;28;20079;-68
2022/08/12 04:26:04;;;;;;;0.20;0.20;;;;;;;20.78;89.31;101362.81;5045698;28;20044;-67
2022/08/12 04:28:30;;;;;;;0.20;0.20;;;;;;;21.19;89.31;101358.75;5045734;28;20022;-68
2022/08/12 04:30:56;;;;;;;0.20;0.20;;;;;;;21.71;89.56;101372.59;5045672;28;20176;-67
2022/08/12 04:33:21;;;;;;;0.20;0.20;;;;;;;22.12;90.16;101374.50;5045532;28;20385;-67
2022/08/12 04:35:47;;;;;;;0.25;0.25;;;;;;;22.65;89.49;101382.88;5045741;28;20055;-67
2022/08/12 04:38:13;;;;;;;0.20;0.20;;;;;;;23.19;88.97;101379.59;5027719;28;20018;-67
2022/08/12 04:40:39;;;;;;;0.10;0.10;;;;;;;23.67;88.58;101370.31;5045706;28;20025;-67
2022/08/12 04:43:04;;;;;;;0.65;0.65;;;;;;;24.11;87.62;101371.69;5045471;28;20397;-67
2022/08/12 04:45:31;;;;;;;0.10;0.10;;;;;;;24.53;86.83;101372.25;5045591;28;20040;-67
2022/08/12 04:47:58;;;;;;;0.10;0.10;;;;;;;24.90;85.98;101372.13;5045406;28;20097;-67
2022/08/12 04:50:24;;;;;;;0.10;0.10;;;;;;;25.25;85.51;101371.13;5045358;28;20021;-67
2022/08/12 04:52:50;;;;;;;0.50;0.50;;;;;;;25.62;84.54;101376.22;5045367;28;20025;-67
2022/08/12 04:55:16;;;;;;;0.10;0.10;;;;;;;25.88;82.40;101381.81;5045945;28;20022;-65
2022/08/12 04:57:42;;;;;;;0.20;0.20;;;;;;;26.30;82.41;101378.50;5045380;28;20087;-65
2022/08/12 05:00:12;;;;;;;0.30;0.30;;;;;;;26.69;79.42;101387.72;5045075;28;20026;-65
2022/08/12 05:02:38;;;;;;;0.80;0.80;;;;;;;27.16;81.18;101382.19;5045070;28;20084;-65
2022/08/12 05:05:04;;;;;;;0.40;0.40;;;;;;;27.51;79.83;101378.19;5044984;28;20037;-65
2022/08/12 05:07:31;;;;;;;0.25;0.25;;;;;;;27.85;78.83;101383.16;5045238;28;20053;-65
2022/08/12 05:09:56;;;;;;;0.63;0.63;;;;;;;28.14;77.69;101377.66;5045158;28;20025;-66
2022/08/12 05:12:22;;;;;;;3.30;0.80;;;;;;;28.36;77.23;101373.53;5044786;28;20021;-66
2022/08/12 05:14:49;;;;;;;0.15;0.15;;;;;;;28.65;76.46;101368.00;5044803;28;20028;-66
2022/08/12 05:17:15;;;;;;;0.32;0.32;;;;;;;28.97;74.14;101371.16;5044618;28;20021;-66
2022/08/12 05:19:41;;;;;;;0.15;0.15;;;;;;;29.32;71.19;101381.13;5044531;28;20025;-65
2022/08/12 05:22:07;;;;;;;0.45;0.45;;;;;;;29.59;68.97;101372.03;5044870;28;20456;-66
2022/08/12 05:24:32;;;;;;;0.20;0.20;;;;;;;29.97;69.08;101375.47;5044638;28;20093;-67
2022/08/12 05:26:59;;;;;;;0.10;0.10;;;;;;;30.14;67.78;101378.69;5044435;28;20026;-66
2022/08/12 05:29:24;;;;;;;0.20;0.20;;;;;;;30.46;67.18;101385.22;5044040;28;20032;-65
2022/08/12 05:31:55;;;;;;;0.10;0.10;;;;;;;30.69;67.19;101356.59;5044564;28;20116;-71
2022/08/12 05:34:21;;;;;;;0.32;0.32;;;;;;;30.93;65.60;101382.44;5026865;28;20021;-73
2022/08/12 05:36:46;;;;;;;0.10;0.10;;;;;;;30.97;64.21;101375.88;5044209;28;20025;-69
2022/08/12 05:39:12;;;;;;;0.40;0.40;;;;;;;31.11;63.79;101371.19;5044142;28;20033;-69
2022/08/12 05:41:38;;;;;;;0.10;0.10;;;;;;;30.73;61.25;101374.16;5044072;28;20102;-69
2022/08/12 05:44:11;;;;;;;0.35;0.35;;;;;;;30.82;60.09;101375.25;5026445;28;20018;-67
2022/08/12 05:46:36;;;;;;;0.10;0.10;;;;;;;30.75;58.83;101366.00;5043999;28;20357;-67
2022/08/12 05:49:03;;;;;;;0.10;0.10;;;;;;;31.26;59.36;101366.41;5043778;28;20027;-68
2022/08/12 05:51:34;;;;;;;0.40;0.40;;;;;;;31.25;57.82;101378.09;5043895;28;20021;-68
2022/08/12 05:54:00;;;;;;;0.10;0.10;;;;;;;31.31;57.70;101369.59;5043780;28;20033;-68
2022/08/12 05:56:33;;;;;;;0.10;0.10;;;;;;;31.34;52.76;101363.09;5026223;28;20488;-67
2022/08/12 05:59:01;;;;;;;0.10;0.10;;;;;;;31.87;56.34;101370.34;5044002;28;20156;-68
2022/08/12 06:01:28;;;;;;;0.20;0.20;;;;;;;32.11;56.07;101368.44;5043562;28;20034;-67
2022/08/12 06:03:54;;;;;;;0.10;0.10;;;;;;;32.21;55.97;101368.47;5043898;28;20037;-67
2022/08/12 06:06:21;;;;;;;0.10;0.10;;;;;;;31.98;52.65;101368.63;5043952;28;20022;-67
2022/08/12 06:08:52;;;;;;;0.10;0.10;;;;;;;32.34;52.52;101379.00;5044099;28;20080;-67
2022/08/12 06:11:24;;;;;;;0.25;0.25;;;;;;;32.62;52.59;101372.09;5044127;28;20045;-67
2022/08/12 06:13:51;;;;;;;0.10;0.10;;;;;;;32.82;51.47;101376.69;5044084;28;20477;-68
2022/08/12 06:16:19;;;;;;;0.10;0.10;;;;;;;32.79;49.95;101372.44;5044096;28;20021;-67
2022/08/12 06:18:45;;;;;;;0.13;0.13;;;;;;;32.59;48.89;101372.34;5043813;28;20113;-67
2022/08/12 06:21:14;;;;;;;0.20;0.20;;;;;;;32.59;48.07;101371.53;5026154;28;20018;-67
2022/08/12 06:23:40;;;;;;;0.10;0.10;;;;;;;33.00;48.11;101377.75;5043999;28;20026;-67
2022/08/12 06:26:08;;;;;;;1.55;1.10;;;;;;;33.09;48.13;101372.53;5043766;28;20042;-67
2022/08/12 06:28:34;;;;;;;0.10;0.10;;;;;;;33.03;45.82;101368.53;5043896;28;20049;-67
2022/08/12 06:31:00;;;;;;;0.00;0.00;;;;;;;33.09;44.73;101368.03;5043911;28;20102;-67
2022/08/12 06:33:25;;;;;;;0.32;0.32;;;;;;;33.27;44.52;101359.28;5043908;28;20056;-67
2022/08/12 06:35:52;;;;;;;0.10;0.10;;;;;;;33.31;44.26;101366.06;5043722;28;20022;-67
2022/08/12 06:38:23;;;;;;;0.10;0.10;;;;;;;33.20;42.80;101368.88;5043783;28;20026;-67
2022/08/12 06:43:37;;;;;;;0.10;0.10;;;;;;;33.33;42.22;101380.22;5047971;28;20060;-67
2022/08/12 06:46:03;;;;;;;1.67;0.88;;;;;;;33.43;41.21;101369.50;5047498;28;20063;-67
2022/08/12 06:48:30;;;;;;;0.40;0.40;;;;;;;33.65;41.74;101377.44;5029793;28;20022;-67
2022/08/12 06:50:56;;;;;;;0.10;0.10;;;;;;;33.40;40.60;101369.78;5047608;28;20359;-67
2022/08/12 06:53:23;;;;;;;0.10;0.10;;;;;;;33.70;40.76;101369.78;5029476;28;20025;-67
2022/08/12 06:55:49;;;;;;;0.10;0.10;;;;;;;33.81;40.13;101372.34;5047282;28;20063;-67
2022/08/12 06:58:16;;;;;;;0.10;0.10;;;;;;;34.04;39.48;101368.47;5047385;28;20073;-68
2022/08/12 07:00:42;;;;;;;0.10;0.10;;;;;;;33.99;39.05;101368.91;5047458;28;20025;-67
2022/08/12 07:03:08;;;;;;;0.10;0.10;;;;;;;33.87;38.40;101376.28;5047070;28;20136;-66
2022/08/12 07:05:33;;;;;;;0.10;0.10;;;;;;;33.84;37.47;101368.50;5047217;28;20052;-67
2022/08/12 07:08:01;;;;;;;0.10;0.10;;;;;;;33.91;37.49;101363.38;5047307;28;20021;-66
2022/08/12 07:10:28;;;;;;;0.10;0.10;;;;;;;33.77;37.38;101370.06;5047285;28;20358;-67
2022/08/12 07:12:53;;;;;;;0.10;0.10;;;;;;;33.66;37.54;101361.13;5047111;28;20033;-68
2022/08/12 07:15:24;;;;;;;0.10;0.10;;;;;;;33.50;35.81;101372.47;5029310;28;20030;-67
2022/08/12 07:18:29;;;;;;;0.10;0.10;;;;;;;33.78;36.71;101372.63;5029435;28;20491;-68
2022/08/12 07:20:47;;;;;;;4.03;0.90;;;;;;;34.00;36.86;101375.97;5042041;28;20274;-66
2022/08/12 07:23:13;;;;;;;0.10;0.10;;;;;;;34.03;36.98;101380.25;5046854;28;20100;-67
2022/08/12 07:25:38;;;;;;;0.15;0.15;;;;;;;34.33;36.64;101372.97;5028918;28;20318;-67
2022/08/12 07:28:10;;;;;;;0.10;0.10;;;;;;;34.35;35.14;101376.34;5045774;28;20026;-67
2022/08/12 07:30:38;;;;;;;0.10;0.10;;;;;;;34.39;33.77;101374.22;5045774;28;20025;-67
2022/08/12 07:33:07;;;;;;;0.10;0.10;;;;;;;34.43;33.86;101373.75;5046836;28;20025;-68
2022/08/12 07:35:36;;;;;;;0.10;0.10;;;;;;;34.56;33.41;101375.28;5046690;28;20037;-66
2022/08/12 07:38:02;;;;;;;0.10;0.10;;;;;;;34.64;32.05;101388.00;5046777;28;20021;-66
2022/08/12 07:40:28;;;;;;;0.25;0.25;;;;;;;34.51;31.06;101389.19;5046703;28;20018;-68
2022/08/12 07:42:55;;;;;;;0.10;0.10;;;;;;;34.28;29.81;101384.19;5046892;28;20021;-67
2022/08/12 07:45:20;;;;;;;0.10;0.10;;;;;;;34.31;30.35;101383.88;5046371;28;20124;-66
2022/08/12 07:47:50;;;;;;;0.00;0.00;;;;;;;34.66;31.42;101384.19;5046700;28;20432;-66
2022/08/12 07:50:19;;;;;;;0.10;0.10;;;;;;;34.61;30.27;101365.75;5046151;28;20025;-66
2022/08/12 07:52:46;;;;;;;0.10;0.10;;;;;;;34.70;30.87;101355.13;5045679;28;20051;-67
2022/08/12 07:55:16;;;;;;;0.10;0.10;;;;;;;35.17;30.78;101378.38;5046327;28;20032;-66
2022/08/12 07:57:58;;;;;;;0.00;0.00;;;;;;;35.16;25.87;101387.47;5046454;28;20364;-67
2022/08/12 08:00:25;;;;;;;0.73;0.73;;;;;;;35.29;27.89;101378.19;5046452;28;20021;-67
2022/08/12 08:02:53;;;;;;;0.10;0.10;;;;;;;35.66;29.03;101373.63;5046134;28;20503;-67
2022/08/12 08:05:22;;;;;;;0.30;0.30;;;;;;;36.10;29.46;101378.19;5028035;28;20080;-66
2022/08/12 08:07:48;;;;;;;0.10;0.10;;;;;;;36.32;29.55;101375.97;5046221;28;20029;-65
2022/08/12 08:10:15;;;;;;;0.35;0.35;;;;;;;36.12;27.77;101380.75;5045914;28;20024;-66
2022/08/12 08:15:19;;;;;;;0.10;0.10;;;;;;;35.72;27.03;101378.44;4656136;22;20053;-66
2022/08/12 08:18:15;;;;;;;5.82;1.17;;;;;;;35.97;27.09;101378.63;5046073;28;20032;-67
2022/08/12 08:20:45;;;;;;;0.10;0.10;;;;;;;35.99;27.63;101375.75;5011071;28;20076;-67
2022/08/12 08:23:16;;;;;;;0.05;0.05;;;;;;;35.96;27.63;101375.06;5026406;28;20097;-67
2022/08/12 08:25:43;;;;;;;0.38;0.38;;;;;;;36.01;25.93;101373.75;5045032;28;20358;-66
2022/08/12 08:28:15;;;;;;;0.10;0.10;;;;;;;36.22;26.55;101376.94;5045234;28;20025;-66
2022/08/12 08:30:44;;;;;;;0.10;0.10;;;;;;;36.74;26.92;101379.75;5045511;28;20230;-66
2022/08/12 08:33:12;;;;;;;0.10;0.10;;;;;;;36.78;26.95;101364.88;5045216;28;20029;-67
2022/08/12 08:35:39;;;;;;;0.40;0.40;;;;;;;36.81;26.82;101375.38;5045185;28;20033;-67
2022/08/12 08:38:13;;;;;;;0.10;0.10;;;;;;;37.00;26.68;101381.50;5045239;28;20032;-66
2022/08/12 08:43:26;;;;;;;0.10;0.10;;;;;;;36.67;26.41;101384.06;5045403;28;20105;-67
2022/08/12 08:45:57;;;;;;;1.02;1.02;;;;;;;36.29;26.53;101376.31;5045435;28;20086;-67
2022/08/12 08:48:23;;;;;;;0.10;0.10;;;;;;;36.12;25.02;101381.56;5045213;28;20029;-68
2022/08/12 08:50:50;;;;;;;0.10;0.10;;;;;;;35.89;26.06;101379.41;5045170;28;20036;-67
2022/08/12 08:53:16;;;;;;;0.10;0.10;;;;;;;35.89;26.23;101375.84;5045059;28;20025;-66
2022/08/12 08:55:42;;;;;;;0.03;0.03;;;;;;;36.22;25.91;101381.47;5044840;28;20025;-67
2022/08/12 08:58:09;;;;;;;0.10;0.10;;;;;;;35.84;25.25;101387.97;5044951;28;20464;-65
2022/08/12 09:00:38;;;;;;;0.08;0.08;;;;;;;35.64;26.23;101389.13;5045249;28;20040;-65
2022/08/12 09:03:04;;;;;;;0.10;0.10;;;;;;;35.53;26.48;101385.66;5044642;28;20029;-68
2022/08/12 09:05:30;;;;;;;0.55;0.20;;;;;;;35.45;26.37;101383.72;5027234;28;20033;-67
2022/08/12 09:07:59;;;;;;;0.10;0.10;;;;;;;35.59;26.51;101393.13;5046129;28;20030;-66
2022/08/12 09:10:24;;;;;;;0.15;0.15;;;;;;;35.89;26.05;101387.50;5046243;28;20119;-67
2022/08/12 09:15:35;;;;;;;0.10;0.10;;;;;;;35.94;25.57;101387.03;5045706;28;20072;-64
2022/08/12 09:18:05;;;;;;;0.10;0.10;;;;;;;35.80;25.80;101389.28;5044855;28;20460;-65
2022/08/12 09:20:33;;;;;;;0.10;0.10;;;;;;;35.72;25.90;101386.53;5045057;28;20033;-67
2022/08/12 09:23:00;;;;;;;0.10;0.10;;;;;;;35.68;26.11;101385.97;5046180;28;20037;-66
2022/08/12 09:25:30;;;;;;;0.10;0.10;;;;;;;35.90;25.39;101388.38;5046187;28;20041;-67
2022/08/12 09:27:56;;;;;;;0.10;0.10;;;;;;;36.20;25.24;101387.03;5046218;28;20056;-68
2022/08/12 09:30:29;;;;;;;0.30;0.30;;;;;;;36.06;24.93;101387.59;5046187;28;20109;-68
2022/08/12 09:32:55;;;;;;;0.15;0.15;;;;;;;36.31;25.32;101385.94;5046123;28;20017;-67
2022/08/12 09:35:32;;;;;;;0.10;0.10;;;;;;;36.37;24.95;101389.88;5045682;28;20033;-66
2022/08/12 09:38:00;;;;;;;0.10;0.10;;;;;;;36.46;24.41;101394.31;5046064;28;20443;-67
2022/08/12 09:40:25;;;;;;;0.10;0.10;;;;;;;36.51;24.42;101391.13;5045497;28;20460;-67
2022/08/12 09:45:35;;;;;;;0.10;0.10;;;;;;;36.44;24.22;101390.06;5046083;28;20028;-66
2022/08/12 09:48:05;;;;;;;0.20;0.20;;;;;;;36.63;24.62;101388.97;5045699;28;20025;-64
2022/08/12 09:53:15;;;;;;;0.10;0.10;;;;;;;37.20;24.78;101387.50;5543053;23;20072;-63
2022/08/12 09:55:53;;;;;;;0.10;0.10;;;;;;;37.30;24.16;101378.38;5067187;28;20031;-68
2022/08/12 09:58:30;;;;;;;0.38;0.38;;;;;;;37.53;22.95;101392.09;5085513;28;20107;-74
2022/08/12 10:01:01;;;;;;;0.10;0.10;;;;;;;37.30;23.04;101395.47;5085576;28;20020;-74
2022/08/12 10:03:30;;;;;;;0.10;0.10;;;;;;;37.29;23.29;101395.63;5067324;28;20020;-74
2022/08/12 10:05:57;;;;;;;0.10;0.10;;;;;;;37.40;23.24;101395.31;5067470;28;20017;-63
2022/08/12 10:08:26;;;;;;;0.40;0.40;;;;;;;36.77;22.49;101387.53;5085396;28;20032;-71
2022/08/12 10:13:40;;;;;;;0.10;0.10;;;;;;;37.04;22.12;101390.16;5085978;28;20066;-68
2022/08/12 10:16:11;;;;;;;0.10;0.10;;;;;;;37.45;22.65;101381.25;5070207;28;20354;-66
2022/08/12 10:18:44;;;;;;;0.10;0.10;;;;;;;37.52;21.76;101386.84;5084489;28;20083;-65
2022/08/12 10:21:15;;;;;;;0.10;0.10;;;;;;;37.23;21.69;101389.03;5085095;28;20025;-66
2022/08/12 10:23:42;;;;;;;0.10;0.10;;;;;;;36.95;22.18;101387.41;5084726;28;20024;-64
2022/08/12 10:31:37;;;;;;;0.10;0.10;;;;;;;37.20;22.43;101379.38;5084868;28;20104;-65
2022/08/12 10:34:04;;;;;;;0.10;0.10;;;;;;;37.36;21.86;101383.13;5085089;28;20024;-64
2022/08/12 10:36:33;;;;;;;0.10;0.10;;;;;;;37.24;21.01;101374.47;5084514;28;20040;-64
2022/08/12 10:38:59;;;;;;;0.10;0.10;;;;;;;37.14;21.19;101371.06;5085023;28;20048;-64
2022/08/12 10:44:11;;;;;;;0.80;0.80;;;;;;;37.14;20.27;101373.75;5085199;28;20031;-64
2022/08/12 10:46:37;;;;;;;0.10;0.10;;;;;;;37.13;21.17;101367.50;5084939;28;20017;-64
2022/08/12 10:49:03;;;;;;;0.10;0.10;;;;;;;37.06;21.51;101372.72;5085348;28;20032;-64
2022/08/12 10:51:29;;;;;;;0.10;0.10;;;;;;;37.08;21.32;101362.59;5085218;28;20035;-65
2022/08/12 10:53:55;;;;;;;0.10;0.10;;;;;;;37.16;21.29;101371.75;5084876;28;20040;-64
2022/08/12 10:56:21;;;;;;;0.10;0.10;;;;;;;36.95;20.60;101367.66;5085055;28;20027;-63
2022/08/12 10:58:47;;;;;;;0.10;0.10;;;;;;;36.95;21.43;101363.06;5084998;28;20032;-64
2022/08/12 11:01:14;;;;;;;0.10;0.10;;;;;;;36.90;21.04;101362.72;5085106;28;20059;-63
2022/08/12 11:03:40;;;;;;;0.10;0.10;;;;;;;36.45;21.01;101353.91;5084824;28;20028;-63
2022/08/12 11:06:08;;;;;;;0.20;0.20;;;;;;;36.10;21.27;101357.41;5067022;28;20356;-63
2022/08/12 11:08:36;;;;;;;0.10;0.10;;;;;;;35.66;21.27;101352.03;5084830;28;20035;-63
2022/08/12 11:11:07;;;;;;;0.10;0.10;;;;;;;34.99;22.17;101360.31;5084868;28;20036;-63
2022/08/12 11:13:36;;;;;;;0.10;0.10;;;;;;;34.19;23.30;101355.41;5084910;28;20024;-64
2022/08/12 11:16:04;;;;;;;0.10;0.10;;;;;;;33.53;24.24;101344.41;5084681;28;20092;-62
2022/08/12 11:18:30;;;;;;;0.00;0.00;;;;;;;33.01;24.57;101347.16;5084799;28;20020;-63
2022/08/12 11:20:55;;;;;;;0.00;0.00;;;;;;;32.83;25.00;101349.66;5084694;28;20035;-62
2022/08/12 11:23:21;;;;;;;0.10;0.10;;;;;;;32.49;25.04;101349.97;5084782;28;20100;-64
2022/08/12 11:25:48;;;;;;;0.10;0.10;;;;;;;32.27;24.87;101341.94;5084659;28;20024;-64
2022/08/12 11:28:15;;;;;;;0.10;0.10;;;;;;;31.94;25.69;101343.84;5087759;28;20067;-64
2022/08/12 11:30:41;;;;;;;0.10;0.10;;;;;;;31.63;26.04;101347.28;5088161;28;20025;-64
2022/08/12 11:33:07;;;;;;;0.00;0.00;;;;;;;31.05;26.48;101335.03;5088464;28;20052;-64
2022/08/12 11:35:33;;;;;;;0.10;0.10;;;;;;;30.30;27.12;101336.38;5087993;28;20110;-65
2022/08/12 11:38:03;;;;;;;0.10;0.10;;;;;;;29.60;27.49;101322.94;5087907;28;20028;-65
2022/08/12 11:40:28;;;;;;;0.10;0.10;;;;;;;28.98;28.38;101341.66;5088058;28;20024;-65
2022/08/12 11:42:54;;;;;;;0.30;0.30;;;;;;;28.61;28.85;101334.41;5088093;28;20024;-65
2022/08/12 11:45:19;;;;;;;0.38;0.38;;;;;;;28.09;29.49;101339.75;5088008;28;20020;-65
2022/08/12 11:47:45;;;;;;;0.10;0.10;;;;;;;27.60;29.79;101336.75;5087993;28;20198;-64
2022/08/12 11:50:11;;;;;;;0.10;0.10;;;;;;;27.31;30.32;101339.50;5087881;28;20052;-65
2022/08/12 11:52:36;;;;;;;0.10;0.10;;;;;;;27.06;31.10;101344.59;5087534;28;20063;-65
2022/08/12 11:55:02;;;;;;;0.10;0.10;;;;;;;26.89;31.52;101337.66;5087835;28;20021;-65
2022/08/12 11:57:27;;;;;;;0.10;0.10;;;;;;;26.71;32.14;101340.53;5087815;28;20029;-64
2022/08/12 11:59:52;;;;;;;0.10;0.10;;;;;;;26.49;33.02;101351.66;5087766;28;20040;-64
2022/08/12 12:02:18;;;;;;;0.10;0.10;;;;;;;26.18;33.77;101338.38;5087714;28;20024;-65
2022/08/12 12:04:44;;;;;;;0.20;0.20;;;;;;;26.05;33.66;101338.28;5087791;28;20016;-65
2022/08/12 12:07:09;;;;;;;0.17;0.17;;;;;;;25.89;34.39;101340.97;5087408;28;20482;-65
2022/08/12 12:09:35;;;;;;;0.10;0.10;;;;;;;25.73;33.98;101341.88;5087609;28;20020;-65
2022/08/12 12:12:03;;;;;;;0.10;0.10;;;;;;;25.61;35.01;101342.53;5087393;28;20044;-65
2022/08/12 12:14:29;;;;;;;0.10;0.10;;;;;;;25.54;35.08;101330.56;5087313;28;20137;-65
2022/08/12 12:16:54;;;;;;;0.10;0.10;;;;;;;25.54;35.68;101338.53;5069567;28;20024;-65
2022/08/12 12:19:19;;;;;;;0.13;0.13;;;;;;;25.57;36.02;101341.88;5087321;28;20020;-65
2022/08/12 12:21:45;;;;;;;0.10;0.10;;;;;;;25.50;36.17;101340.50;5087138;28;20545;-65
2022/08/12 12:24:10;;;;;;;0.20;0.20;;;;;;;25.46;36.69;101331.00;5087352;28;20020;-65
2022/08/12 12:26:36;;;;;;;1.02;0.73;;;;;;;25.42;36.83;101335.63;5087149;28;20021;-64
2022/08/12 12:29:01;;;;;;;0.10;0.10;;;;;;;25.37;37.00;101329.72;5087005;28;20503;-65
2022/08/12 12:31:26;;;;;;;0.63;0.63;;;;;;;25.29;36.53;101330.16;5086918;28;20031;-64
2022/08/12 12:33:52;;;;;;;0.20;0.20;;;;;;;25.34;36.49;101321.91;5087055;28;20073;-64
2022/08/12 12:36:17;;;;;;;0.10;0.10;;;;;;;25.29;37.00;101319.53;5086841;28;20024;-64
2022/08/12 12:38:42;;;;;;;0.10;0.10;;;;;;;25.21;37.29;101321.75;5086762;28;20047;-64
2022/08/12 12:41:08;;;;;;;0.10;0.10;;;;;;;25.11;37.39;101321.44;5086884;28;20056;-64
2022/08/12 12:43:33;;;;;;;0.10;0.10;;;;;;;25.05;37.46;101319.13;5086638;28;20468;-65
2022/08/12 12:45:59;;;;;;;0.10;0.10;;;;;;;25.03;37.63;101316.53;5086880;28;20017;-64
2022/08/12 12:48:24;;;;;;;0.30;0.30;;;;;;;25.11;37.63;101321.44;5086654;28;20025;-64
2022/08/12 12:53:38;;;;;;;0.10;0.10;;;;;;;25.14;37.27;101313.28;5086536;28;20087;-64
2022/08/12 12:56:04;;;;;;;0.10;0.10;;;;;;;25.10;37.48;101320.56;5086468;28;20029;-64
2022/08/12 12:58:29;;;;;;;0.20;0.20;;;;;;;25.03;37.33;101326.31;5086663;28;20028;-64
2022/08/12 13:01:00;;;;;;;0.15;0.15;;;;;;;24.94;37.71;101317.91;5086700;28;20021;-64
2022/08/12 13:03:26;;;;;;;0.10;0.10;;;;;;;24.95;37.66;101308.97;5086621;28;20028;-64
2022/08/12 13:05:51;;;;;;;0.20;0.20;;;;;;;24.90;37.95;101321.69;5086281;28;20034;-65
2022/08/12 13:08:25;;;;;;;0.10;0.10;;;;;;;24.90;38.14;101318.16;5086128;28;20032;-64
2022/08/12 13:10:55;;;;;;;0.10;0.10;;;;;;;24.86;38.24;101323.59;5086253;28;20080;-66
2022/08/12 13:13:21;;;;;;;0.20;0.20;;;;;;;24.85;38.31;101315.72;5086068;28;20025;-65
2022/08/12 13:15:48;;;;;;;0.20;0.20;;;;;;;24.89;38.03;101317.28;5086141;28;20055;-65
2022/08/12 13:18:16;;;;;;;0.10;0.10;;;;;;;24.84;38.43;101316.66;5086034;28;20024;-65
2022/08/12 13:20:45;;;;;;;0.50;0.50;;;;;;;24.84;38.57;101316.66;5086033;28;20020;-66
2022/08/12 13:23:12;;;;;;;0.10;0.10;;;;;;;24.91;38.35;101318.06;5085719;28;20024;-66
2022/08/12 13:25:40;;;;;;;0.50;0.50;;;;;;;24.90;38.27;101313.72;5086081;28;20031;-65
2022/08/12 13:28:07;;;;;;;1.98;1.00;;;;;;;24.94;38.39;101309.06;5086072;28;20017;-66
2022/08/12 13:30:35;;;;;;;0.10;0.10;;;;;;;25.03;38.23;101305.91;5086197;28;20029;-64
2022/08/12 13:33:00;;;;;;;0.10;0.10;;;;;;;25.03;38.27;101305.06;5086065;28;20029;-65